Time;durP1;ratioP1;P1;durP2;ratioP2;P2;SDS_P1;SDS_P2;PMS_P1;PMS_P2;Temp;Humidity;BMP_temperature;BMP_pressure;BME280_temperature;BME280_humidity;BME280_pressure;Samples;Min_cycle;Max_cycle;Signal;HPM_P1;HPM_P2
2023/05/19 00:01:32;;;;;;;3.00;1.70;;;;;;;;;;5037536;28;20233;-80
2023/05/19 00:04:03;;;;;;;1.87;1.30;;;;;;;;;;5036289;28;20618;-82
2023/05/19 00:06:31;;;;;;;3.10;1.60;;;;;;;;;;5020252;28;20632;-80
2023/05/19 00:08:57;;;;;;;3.53;1.57;;;;;;;;;;5019517;28;20269;-80
2023/05/19 00:11:24;;;;;;;3.60;1.70;;;;;;;;;;5036957;28;20289;-79
2023/05/19 00:13:51;;;;;;;5.53;1.90;;;;;;;;;;5019454;28;20209;-81
2023/05/19 00:16:17;;;;;;;4.10;1.70;;;;;;;;;;5019026;28;20579;-80
2023/05/19 00:18:43;;;;;;;3.93;1.80;;;;;;;;;;5019496;28;20182;-80
2023/05/19 00:21:09;;;;;;;3.03;1.93;;;;;;;;;;5018283;28;20677;-80
2023/05/19 00:23:35;;;;;;;3.80;1.70;;;;;;;;;;5037059;28;20182;-80
2023/05/19 00:26:01;;;;;;;2.53;1.50;;;;;;;;;;5036843;28;20527;-80
2023/05/19 00:28:27;;;;;;;4.27;1.70;;;;;;;;;;5037060;28;20174;-81
2023/05/19 00:30:53;;;;;;;3.77;1.57;;;;;;;;;;5036591;28;20201;-80
2023/05/19 00:33:19;;;;;;;3.60;1.83;;;;;;;;;;5037223;28;20193;-83
2023/05/19 00:35:45;;;;;;;3.17;1.60;;;;;;;;;;5036631;28;20178;-81
2023/05/19 00:38:11;;;;;;;3.50;1.70;;;;;;;;;;5019202;28;20182;-80
2023/05/19 00:40:37;;;;;;;4.80;1.73;;;;;;;;;;5018636;28;20280;-80
2023/05/19 00:43:04;;;;;;;5.40;2.20;;;;;;;;;;5036603;28;20170;-80
2023/05/19 00:45:30;;;;;;;2.00;1.70;;;;;;;;;;5018859;28;20236;-80
2023/05/19 00:47:56;;;;;;;2.20;1.50;;;;;;;;;;5018686;28;20270;-81
2023/05/19 00:50:23;;;;;;;4.47;1.90;;;;;;;;;;5036248;28;20270;-79
2023/05/19 00:52:50;;;;;;;4.20;1.90;;;;;;;;;;5036627;28;20185;-79
2023/05/19 00:55:16;;;;;;;4.17;1.80;;;;;;;;;;5036239;28;20247;-80
2023/05/19 00:57:42;;;;;;;4.63;1.77;;;;;;;;;;5036219;28;20192;-81
2023/05/19 01:00:10;;;;;;;2.87;1.80;;;;;;;;;;5017477;28;20210;-80
2023/05/19 01:02:38;;;;;;;2.87;1.60;;;;;;;;;;5035271;28;20182;-80
2023/05/19 01:05:05;;;;;;;3.17;1.60;;;;;;;;;;5018322;28;20178;-81
2023/05/19 01:07:31;;;;;;;4.13;1.77;;;;;;;;;;5035931;28;20181;-78
2023/05/19 01:09:57;;;;;;;3.43;1.60;;;;;;;;;;5017700;28;20176;-80
2023/05/19 01:12:23;;;;;;;3.17;1.67;;;;;;;;;;5018180;28;20191;-80
2023/05/19 01:14:49;;;;;;;2.77;1.70;;;;;;;;;;5017767;28;20181;-80
2023/05/19 01:17:42;;;;;;;2.20;1.47;;;;;;;;;;5018597;28;20720;-80
2023/05/19 01:20:17;;;;;;;3.67;1.80;;;;;;;;;;5030559;28;20240;-80
2023/05/19 01:23:13;;;;;;;4.03;1.80;;;;;;;;;;5035427;28;20183;-80
2023/05/19 01:25:45;;;;;;;3.70;2.07;;;;;;;;;;5035658;28;20160;-80
2023/05/19 01:28:20;;;;;;;3.97;1.90;;;;;;;;;;5035724;28;20202;-81
2023/05/19 01:30:52;;;;;;;5.83;1.80;;;;;;;;;;5017589;28;20202;-80
2023/05/19 01:33:20;;;;;;;3.37;1.73;;;;;;;;;;5017548;28;20182;-80
2023/05/19 01:35:47;;;;;;;4.23;1.90;;;;;;;;;;5035276;28;20194;-80
2023/05/19 01:38:15;;;;;;;1.90;1.70;;;;;;;;;;5017525;28;20229;-80
2023/05/19 01:40:42;;;;;;;4.60;1.77;;;;;;;;;;5017163;28;20208;-80
2023/05/19 01:43:09;;;;;;;4.37;2.13;;;;;;;;;;5034886;28;20174;-80
2023/05/19 01:45:36;;;;;;;3.53;1.93;;;;;;;;;;5017741;28;20175;-80
2023/05/19 01:48:03;;;;;;;3.60;1.87;;;;;;;;;;5034906;28;20176;-82
2023/05/19 01:50:30;;;;;;;3.53;2.00;;;;;;;;;;5016638;28;20654;-80
2023/05/19 01:52:56;;;;;;;2.63;1.60;;;;;;;;;;5035058;28;20185;-80
2023/05/19 01:55:22;;;;;;;2.53;1.70;;;;;;;;;;5017363;28;20184;-80
2023/05/19 01:58:00;;;;;;;4.47;1.93;;;;;;;;;;5017083;28;20685;-80
2023/05/19 02:00:35;;;;;;;3.37;1.70;;;;;;;;;;5016718;28;20217;-81
2023/05/19 02:03:24;;;;;;;3.40;1.63;;;;;;;;;;5033912;28;20674;-80
2023/05/19 02:05:56;;;;;;;2.33;1.50;;;;;;;;;;5017028;28;20175;-80
2023/05/19 02:08:43;;;;;;;4.60;2.33;;;;;;;;;;5034585;28;20259;-78
2023/05/19 02:11:14;;;;;;;4.63;1.83;;;;;;;;;;5016328;28;20203;-80
2023/05/19 02:13:43;;;;;;;2.53;1.70;;;;;;;;;;5034521;28;20187;-80
2023/05/19 02:16:10;;;;;;;2.40;1.77;;;;;;;;;;5016870;28;20187;-80
2023/05/19 02:18:36;;;;;;;3.53;2.00;;;;;;;;;;5034029;28;20262;-80
2023/05/19 02:21:02;;;;;;;4.27;2.20;;;;;;;;;;5033843;28;20323;-80
2023/05/19 02:23:28;;;;;;;4.63;1.90;;;;;;;;;;5034270;28;20169;-79
2023/05/19 02:25:54;;;;;;;4.70;1.80;;;;;;;;;;5034246;28;20208;-80
2023/05/19 02:28:20;;;;;;;2.30;1.60;;;;;;;;;;5034186;28;20230;-80
2023/05/19 02:30:46;;;;;;;6.07;1.87;;;;;;;;;;5016053;28;20342;-80
2023/05/19 02:33:12;;;;;;;4.53;1.93;;;;;;;;;;5016426;28;20176;-80
2023/05/19 02:35:38;;;;;;;4.07;1.90;;;;;;;;;;5034471;28;20226;-80
2023/05/19 02:38:04;;;;;;;3.20;1.50;;;;;;;;;;5016306;28;20202;-80
2023/05/19 02:40:30;;;;;;;3.77;1.90;;;;;;;;;;5015914;28;20218;-78
2023/05/19 02:42:56;;;;;;;2.93;1.83;;;;;;;;;;5034308;28;20205;-82
2023/05/19 02:45:22;;;;;;;4.63;2.00;;;;;;;;;;5016107;28;20173;-81
2023/05/19 02:47:48;;;;;;;2.47;1.90;;;;;;;;;;5034408;28;20172;-80
2023/05/19 02:50:14;;;;;;;2.43;1.87;;;;;;;;;;5016392;28;20202;-80
2023/05/19 02:52:40;;;;;;;2.90;1.90;;;;;;;;;;5016164;28;20179;-80
2023/05/19 02:55:06;;;;;;;6.00;2.23;;;;;;;;;;5016654;28;20179;-80
2023/05/19 02:57:32;;;;;;;3.23;1.90;;;;;;;;;;5016218;28;20183;-80
2023/05/19 02:59:58;;;;;;;3.27;1.90;;;;;;;;;;5015983;28;20184;-79
2023/05/19 03:02:24;;;;;;;3.37;1.93;;;;;;;;;;5031579;28;20208;-80
2023/05/19 03:04:50;;;;;;;3.57;1.87;;;;;;;;;;5033940;28;20182;-80
2023/05/19 03:07:16;;;;;;;2.87;1.90;;;;;;;;;;5017087;28;20623;-80
2023/05/19 03:09:42;;;;;;;3.70;1.90;;;;;;;;;;5033334;28;20175;-80
2023/05/19 03:12:08;;;;;;;3.10;1.73;;;;;;;;;;5016343;28;20594;-80
2023/05/19 03:14:36;;;;;;;4.30;1.90;;;;;;;;;;5016313;28;20175;-80
2023/05/19 03:17:02;;;;;;;2.33;1.97;;;;;;;;;;5016319;28;20558;-80
2023/05/19 03:19:31;;;;;;;3.87;1.70;;;;;;;;;;5016391;28;20204;-80
2023/05/19 03:21:57;;;;;;;3.57;1.80;;;;;;;;;;5033659;28;20685;-80
2023/05/19 03:24:23;;;;;;;4.83;1.70;;;;;;;;;;5015855;28;20175;-80
2023/05/19 03:26:49;;;;;;;2.40;1.80;;;;;;;;;;5033898;28;20549;-79
2023/05/19 03:29:15;;;;;;;2.70;1.90;;;;;;;;;;5033857;28;20171;-80
2023/05/19 03:31:41;;;;;;;1.77;1.50;;;;;;;;;;5033206;28;20247;-80
2023/05/19 03:34:07;;;;;;;4.60;1.93;;;;;;;;;;5033647;28;20224;-80
2023/05/19 03:36:38;;;;;;;3.73;1.87;;;;;;;;;;5015942;28;20213;-79
2023/05/19 03:39:04;;;;;;;2.33;1.70;;;;;;;;;;5034072;28;20147;-80
2023/05/19 03:41:30;;;;;;;2.57;1.60;;;;;;;;;;5015111;28;20209;-80
2023/05/19 03:43:56;;;;;;;4.80;1.90;;;;;;;;;;5034064;28;20174;-80
2023/05/19 03:46:22;;;;;;;2.73;1.80;;;;;;;;;;5016127;28;20181;-78
2023/05/19 03:48:48;;;;;;;3.23;1.90;;;;;;;;;;5015865;28;20174;-80
2023/05/19 03:51:14;;;;;;;4.17;1.90;;;;;;;;;;5015315;28;20225;-80
2023/05/19 03:53:40;;;;;;;4.47;1.80;;;;;;;;;;5033887;28;20219;-80
2023/05/19 03:56:06;;;;;;;3.20;1.87;;;;;;;;;;5015928;28;20182;-80
2023/05/19 03:58:33;;;;;;;5.07;1.60;;;;;;;;;;5016073;28;20183;-80
2023/05/19 04:00:59;;;;;;;3.90;1.90;;;;;;;;;;5015296;28;20214;-80
2023/05/19 04:03:25;;;;;;;3.63;2.10;;;;;;;;;;5015050;28;20269;-80
2023/05/19 04:05:51;;;;;;;2.60;1.80;;;;;;;;;;5033457;28;20174;-80
2023/05/19 04:08:17;;;;;;;2.80;1.70;;;;;;;;;;5015895;28;20178;-81
2023/05/19 04:10:43;;;;;;;2.50;1.93;;;;;;;;;;5015271;28;20260;-80
2023/05/19 04:13:10;;;;;;;4.70;1.83;;;;;;;;;;5017290;28;20216;-80
2023/05/19 04:15:36;;;;;;;3.37;1.83;;;;;;;;;;5037200;28;20174;-82
2023/05/19 04:18:02;;;;;;;4.23;2.20;;;;;;;;;;5019508;28;20553;-79
2023/05/19 04:20:28;;;;;;;2.43;1.63;;;;;;;;;;5018655;28;20235;-80
2023/05/19 04:22:54;;;;;;;4.17;1.97;;;;;;;;;;5019581;28;20217;-79
2023/05/19 04:25:20;;;;;;;5.00;2.00;;;;;;;;;;5019116;28;20523;-80
2023/05/19 04:27:47;;;;;;;3.23;1.70;;;;;;;;;;5037141;28;20212;-80
2023/05/19 04:30:16;;;;;;;2.40;1.90;;;;;;;;;;5018523;28;20251;-80
2023/05/19 04:32:41;;;;;;;3.33;1.93;;;;;;;;;;5019034;28;20268;-80
2023/05/19 04:35:07;;;;;;;5.00;1.90;;;;;;;;;;5036810;28;20200;-80
2023/05/19 04:37:36;;;;;;;3.73;1.90;;;;;;;;;;5019359;28;20174;-80
2023/05/19 04:40:04;;;;;;;3.23;1.93;;;;;;;;;;5036030;28;20182;-80
2023/05/19 04:42:31;;;;;;;2.80;1.60;;;;;;;;;;5036287;28;20217;-80
2023/05/19 04:44:57;;;;;;;3.13;2.10;;;;;;;;;;5036620;28;20228;-79
2023/05/19 04:47:26;;;;;;;4.83;2.00;;;;;;;;;;5018603;28;20178;-80
2023/05/19 04:49:54;;;;;;;2.23;1.73;;;;;;;;;;5036174;28;20178;-79
2023/05/19 04:52:21;;;;;;;4.30;1.90;;;;;;;;;;5018537;28;20561;-80
2023/05/19 04:54:47;;;;;;;4.20;2.23;;;;;;;;;;5018921;28;20185;-80
2023/05/19 04:57:13;;;;;;;5.07;2.30;;;;;;;;;;5036206;28;20174;-80
2023/05/19 04:59:39;;;;;;;4.57;2.30;;;;;;;;;;5017988;28;20185;-80
2023/05/19 05:02:05;;;;;;;3.10;2.10;;;;;;;;;;5017101;28;20596;-80
2023/05/19 05:04:31;;;;;;;6.03;2.03;;;;;;;;;;5018277;28;20210;-80
2023/05/19 05:06:57;;;;;;;4.33;2.40;;;;;;;;;;5017800;28;20182;-81
2023/05/19 05:09:23;;;;;;;5.57;2.20;;;;;;;;;;5017682;28;20171;-81
2023/05/19 05:11:50;;;;;;;3.57;2.27;;;;;;;;;;5034873;28;20225;-81
2023/05/19 05:14:16;;;;;;;4.87;2.40;;;;;;;;;;5017387;28;20666;-80
2023/05/19 05:16:42;;;;;;;3.13;1.83;;;;;;;;;;5035427;28;20206;-79
2023/05/19 05:19:08;;;;;;;4.20;2.43;;;;;;;;;;5035687;28;20645;-80
2023/05/19 05:21:34;;;;;;;3.93;2.03;;;;;;;;;;5034433;28;20205;-82
2023/05/19 05:24:01;;;;;;;3.77;2.00;;;;;;;;;;5034778;28;20167;-82
2023/05/19 05:26:29;;;;;;;4.47;2.23;;;;;;;;;;5032731;28;20694;-83
2023/05/19 05:28:55;;;;;;;4.37;2.53;;;;;;;;;;5033919;28;20249;-85
2023/05/19 05:31:21;;;;;;;2.53;2.00;;;;;;;;;;5032793;28;20202;-86
2023/05/19 05:33:47;;;;;;;2.87;2.23;;;;;;;;;;5032441;28;20191;-84
2023/05/19 05:36:13;;;;;;;5.27;2.20;;;;;;;;;;5022369;28;20189;-84
2023/05/19 05:38:39;;;;;;;3.23;2.10;;;;;;;;;;5023825;28;20278;-85
2023/05/19 05:41:05;;;;;;;3.00;2.03;;;;;;;;;;5015196;28;20213;-86
2023/05/19 05:43:31;;;;;;;4.40;2.60;;;;;;;;;;5033313;28;20261;-84
2023/05/19 05:45:57;;;;;;;7.13;2.53;;;;;;;;;;5023912;28;20224;-82
2023/05/19 05:48:23;;;;;;;4.97;2.40;;;;;;;;;;5022467;28;20168;-84
2023/05/19 05:50:50;;;;;;;5.70;2.33;;;;;;;;;;5033123;28;20256;-84
2023/05/19 05:53:20;;;;;;;4.57;2.50;;;;;;;;;;5016011;28;20177;-81
2023/05/19 05:55:46;;;;;;;4.63;2.60;;;;;;;;;;5034444;28;20264;-84
2023/05/19 05:58:13;;;;;;;3.20;2.20;;;;;;;;;;5034309;28;20641;-80
2023/05/19 06:00:42;;;;;;;3.77;2.23;;;;;;;;;;5042247;22;20213;-80
2023/05/19 06:03:08;;;;;;;4.97;2.37;;;;;;;;;;5053163;28;20204;-80
2023/05/19 06:05:34;;;;;;;5.57;2.30;;;;;;;;;;5053580;28;20181;-83
2023/05/19 06:08:00;;;;;;;4.13;2.30;;;;;;;;;;5053045;28;20277;-83
2023/05/19 06:10:30;;;;;;;4.10;2.30;;;;;;;;;;5051162;28;20222;-84
2023/05/19 06:12:56;;;;;;;4.50;2.10;;;;;;;;;;5032430;28;20185;-84
2023/05/19 06:15:22;;;;;;;4.43;2.43;;;;;;;;;;5031848;28;20177;-83
2023/05/19 06:17:48;;;;;;;3.43;2.40;;;;;;;;;;5032117;28;20304;-80
2023/05/19 06:20:15;;;;;;;3.70;2.20;;;;;;;;;;5030862;28;20172;-84
2023/05/19 06:22:41;;;;;;;3.60;2.20;;;;;;;;;;5030607;28;20755;-84
2023/05/19 06:25:07;;;;;;;3.87;2.47;;;;;;;;;;5032731;28;20174;-83
2023/05/19 06:27:34;;;;;;;3.93;2.30;;;;;;;;;;5032022;28;20190;-84
2023/05/19 06:30:00;;;;;;;4.60;2.50;;;;;;;;;;5039410;28;20182;-84
2023/05/19 06:32:26;;;;;;;5.53;2.50;;;;;;;;;;5032728;28;20190;-84
2023/05/19 06:34:55;;;;;;;3.40;2.50;;;;;;;;;;5047931;28;20274;-84
2023/05/19 06:37:21;;;;;;;4.07;2.40;;;;;;;;;;5047631;28;20555;-84
2023/05/19 06:39:50;;;;;;;4.37;2.20;;;;;;;;;;5032218;28;20178;-83
2023/05/19 06:42:16;;;;;;;4.00;2.40;;;;;;;;;;5031935;28;20206;-85
2023/05/19 06:44:42;;;;;;;6.47;2.40;;;;;;;;;;5032332;28;20224;-84
2023/05/19 06:47:08;;;;;;;3.63;2.50;;;;;;;;;;5032337;28;20185;-83
2023/05/19 06:49:34;;;;;;;5.13;2.60;;;;;;;;;;5039415;28;20201;-83
2023/05/19 06:52:00;;;;;;;6.60;2.10;;;;;;;;;;5047299;28;20260;-83
2023/05/19 06:54:26;;;;;;;3.90;2.30;;;;;;;;;;5032452;28;20177;-83
2023/05/19 06:56:52;;;;;;;4.23;2.40;;;;;;;;;;5044276;28;20231;-83
2023/05/19 06:59:20;;;;;;;7.03;2.33;;;;;;;;;;5032196;28;20181;-83
2023/05/19 07:01:46;;;;;;;3.53;2.20;;;;;;;;;;5031248;28;20221;-83
2023/05/19 07:04:12;;;;;;;5.90;1.90;;;;;;;;;;5013991;28;20178;-83
2023/05/19 07:06:38;;;;;;;3.70;1.97;;;;;;;;;;5031605;28;20547;-82
2023/05/19 07:09:04;;;;;;;6.47;2.27;;;;;;;;;;5031410;28;20174;-83
2023/05/19 07:11:30;;;;;;;4.93;2.10;;;;;;;;;;5030764;28;20198;-83
2023/05/19 07:13:56;;;;;;;5.10;2.30;;;;;;;;;;5013784;28;20179;-85
2023/05/19 07:16:22;;;;;;;3.67;2.13;;;;;;;;;;5031343;28;20174;-88
2023/05/19 07:18:48;;;;;;;2.97;2.07;;;;;;;;;;5013409;28;20185;-88
2023/05/19 07:21:14;;;;;;;5.03;2.00;;;;;;;;;;5013524;28;20237;-88
2023/05/19 07:23:40;;;;;;;4.83;2.10;;;;;;;;;;5031678;28;20170;-88
2023/05/19 07:26:06;;;;;;;6.53;2.50;;;;;;;;;;5031654;28;20181;-88
2023/05/19 07:28:33;;;;;;;4.40;2.30;;;;;;;;;;5031539;28;20621;-88
2023/05/19 07:30:59;;;;;;;4.50;2.10;;;;;;;;;;5013183;28;20202;-88
2023/05/19 07:33:25;;;;;;;5.73;2.23;;;;;;;;;;5013690;28;20187;-88
2023/05/19 07:35:52;;;;;;;5.40;2.30;;;;;;;;;;5013946;28;20182;-87
2023/05/19 07:38:18;;;;;;;3.67;2.43;;;;;;;;;;5031360;28;20631;-88
2023/05/19 07:40:44;;;;;;;5.10;2.40;;;;;;;;;;5030860;28;20190;-88
2023/05/19 07:43:10;;;;;;;4.60;2.40;;;;;;;;;;5031173;28;20174;-88
2023/05/19 07:45:36;;;;;;;5.93;2.27;;;;;;;;;;5046548;28;20184;-88
2023/05/19 07:48:02;;;;;;;3.93;2.20;;;;;;;;;;5048063;28;20269;-88
2023/05/19 07:50:28;;;;;;;4.10;2.30;;;;;;;;;;5049872;28;20175;-88
2023/05/19 07:52:54;;;;;;;8.70;4.80;;;;;;;;;;5049832;28;20695;-88
2023/05/19 07:55:22;;;;;;;5.10;2.33;;;;;;;;;;5034317;28;20174;-88
2023/05/19 07:57:48;;;;;;;3.73;2.93;;;;;;;;;;5050345;28;20167;-87
2023/05/19 08:00:14;;;;;;;3.53;2.20;;;;;;;;;;5049821;28;20175;-88
2023/05/19 08:02:40;;;;;;;2.70;2.20;;;;;;;;;;4997418;28;1089020;-88
2023/05/19 08:05:08;;;;;;;3.50;2.10;;;;;;;;;;5035900;28;20175;-88
2023/05/19 08:07:34;;;;;;;4.63;2.17;;;;;;;;;;5049710;28;20198;-88
2023/05/19 08:10:00;;;;;;;4.37;2.20;;;;;;;;;;5050364;28;20221;-88
2023/05/19 08:12:26;;;;;;;3.50;2.03;;;;;;;;;;5035696;28;20301;-82
2023/05/19 08:14:52;;;;;;;5.67;2.03;;;;;;;;;;5051296;28;20177;-82
2023/05/19 08:17:18;;;;;;;4.23;2.10;;;;;;;;;;5035971;28;20559;-85
2023/05/19 08:19:44;;;;;;;3.57;1.83;;;;;;;;;;5050699;28;20209;-85
2023/05/19 08:22:10;;;;;;;4.17;2.10;;;;;;;;;;5035532;28;20210;-84
2023/05/19 08:24:36;;;;;;;3.67;1.90;;;;;;;;;;5050790;28;20182;-85
2023/05/19 08:27:03;;;;;;;4.40;1.87;;;;;;;;;;5050694;28;20178;-84
2023/05/19 08:29:30;;;;;;;2.87;1.80;;;;;;;;;;5050883;28;20178;-84
2023/05/19 08:31:57;;;;;;;3.23;1.93;;;;;;;;;;5050124;28;20195;-85
2023/05/19 08:34:23;;;;;;;2.33;1.60;;;;;;;;;;5050533;28;20182;-84
2023/05/19 08:36:49;;;;;;;3.97;2.00;;;;;;;;;;5050849;28;20178;-84
2023/05/19 08:39:17;;;;;;;2.90;1.80;;;;;;;;;;5035290;28;20179;-84
2023/05/19 08:41:43;;;;;;;3.83;1.70;;;;;;;;;;5049757;28;20295;-84
2023/05/19 08:44:09;;;;;;;3.70;1.60;;;;;;;;;;5049572;28;20227;-84
2023/05/19 08:46:35;;;;;;;3.63;1.80;;;;;;;;;;5034924;28;20177;-83
2023/05/19 08:49:04;;;;;;;2.23;1.40;;;;;;;;;;5050484;28;20174;-84
2023/05/19 08:51:33;;;;;;;2.73;1.57;;;;;;;;;;5049840;28;20260;-82
2023/05/19 08:54:08;;;;;;;9.20;1.90;;;;;;;;;;5050446;28;20268;-82
2023/05/19 08:56:34;;;;;;;3.37;1.73;;;;;;;;;;5035214;28;20174;-81
2023/05/19 08:59:02;;;;;;;3.40;2.03;;;;;;;;;;5049494;28;20174;-83
2023/05/19 09:01:29;;;;;;;3.10;1.90;;;;;;;;;;5033895;28;20766;-82
2023/05/19 09:03:55;;;;;;;4.23;1.93;;;;;;;;;;5050228;28;20192;-81
2023/05/19 09:06:21;;;;;;;3.43;1.70;;;;;;;;;;5034783;28;20178;-82
2023/05/19 09:08:47;;;;;;;4.43;1.80;;;;;;;;;;5034598;28;20182;-83
2023/05/19 09:11:13;;;;;;;2.37;1.60;;;;;;;;;;5049641;28;20205;-82
2023/05/19 09:13:39;;;;;;;2.70;2.00;;;;;;;;;;5050340;28;20170;-82
2023/05/19 09:16:05;;;;;;;2.67;1.70;;;;;;;;;;5034660;28;20254;-83
2023/05/19 09:18:31;;;;;;;4.77;1.83;;;;;;;;;;5049830;28;20200;-83
2023/05/19 09:20:59;;;;;;;3.43;1.93;;;;;;;;;;5034482;28;20214;-83
2023/05/19 09:23:27;;;;;;;3.03;2.03;;;;;;;;;;5049955;28;20265;-81
2023/05/19 09:25:53;;;;;;;2.87;1.70;;;;;;;;;;5034671;28;20201;-82
2023/05/19 09:28:23;;;;;;;4.73;1.90;;;;;;;;;;5050073;28;20170;-82
2023/05/19 09:30:58;;;;;;;2.57;1.70;;;;;;;;;;5049153;28;20209;-82
2023/05/19 09:33:23;;;;;;;4.13;1.93;;;;;;;;;;5049808;28;20171;-83
2023/05/19 09:35:49;;;;;;;2.87;1.70;;;;;;;;;;5049439;28;20182;-83
2023/05/19 09:38:20;;;;;;;3.00;1.90;;;;;;;;;;5034813;28;20179;-81
2023/05/19 09:40:48;;;;;;;4.37;1.80;;;;;;;;;;5050620;28;20203;-81
2023/05/19 09:43:14;;;;;;;2.83;2.03;;;;;;;;;;5049774;28;20282;-84
2023/05/19 09:45:39;;;;;;;3.70;1.90;;;;;;;;;;5034108;28;20198;-84
2023/05/19 09:48:06;;;;;;;3.87;2.27;;;;;;;;;;5049432;28;20197;-85
2023/05/19 09:50:32;;;;;;;4.63;2.00;;;;;;;;;;5048547;28;20179;-85
2023/05/19 09:52:59;;;;;;;6.97;5.03;;;;;;;;;;5049465;28;20181;-85
2023/05/19 09:55:28;;;;;;;4.93;2.03;;;;;;;;;;5040945;28;20206;-84
2023/05/19 09:57:56;;;;;;;2.67;2.23;;;;;;;;;;5033722;28;20273;-85
2023/05/19 10:00:23;;;;;;;3.17;1.87;;;;;;;;;;5024212;28;20179;-84
2023/05/19 10:02:49;;;;;;;2.77;1.80;;;;;;;;;;5013594;28;20226;-84
2023/05/19 10:05:19;;;;;;;3.63;1.87;;;;;;;;;;5013825;28;20186;-87
2023/05/19 10:07:47;;;;;;;3.50;1.97;;;;;;;;;;5014103;28;20190;-84
2023/05/19 10:10:13;;;;;;;2.80;1.60;;;;;;;;;;5012353;28;20183;-88
2023/05/19 10:12:40;;;;;;;2.60;1.70;;;;;;;;;;5013143;28;20210;-85
2023/05/19 10:15:08;;;;;;;2.10;1.60;;;;;;;;;;5014782;28;20261;-84
2023/05/19 10:17:36;;;;;;;3.00;1.40;;;;;;;;;;5023469;28;20204;-84
2023/05/19 10:20:03;;;;;;;3.97;1.70;;;;;;;;;;5031461;28;20170;-84
2023/05/19 10:22:29;;;;;;;3.10;1.90;;;;;;;;;;5033172;28;20229;-84
2023/05/19 10:24:55;;;;;;;2.97;1.50;;;;;;;;;;5032104;28;20174;-84
2023/05/19 10:27:22;;;;;;;3.83;1.60;;;;;;;;;;5033397;28;20521;-84
2023/05/19 10:29:49;;;;;;;2.80;1.50;;;;;;;;;;5031425;28;20175;-84
2023/05/19 10:32:18;;;;;;;5.23;2.50;;;;;;;;;;5031636;28;20205;-84
2023/05/19 10:34:50;;;;;;;3.10;1.80;;;;;;;;;;5033242;28;20178;-84
2023/05/19 10:37:34;;;;;;;2.87;1.97;;;;;;;;;;5032868;28;20182;-84
2023/05/19 10:40:00;;;;;;;6.78;4.05;;;;;;;;;;5032620;28;20173;-84
2023/05/19 10:42:33;;;;;;;5.80;2.77;;;;;;;;;;5032832;28;20206;-84
2023/05/19 10:45:02;;;;;;;4.30;2.58;;;;;;;;;;5033059;28;20213;-84
2023/05/19 10:47:29;;;;;;;2.53;1.83;;;;;;;;;;5033149;28;20194;-84
2023/05/19 10:49:55;;;;;;;2.88;2.13;;;;;;;;;;5032511;28;20185;-84
2023/05/19 10:52:25;;;;;;;3.85;2.20;;;;;;;;;;5031470;28;20198;-84
2023/05/19 10:54:53;;;;;;;3.10;1.80;;;;;;;;;;5031635;28;20174;-84
2023/05/19 10:57:31;;;;;;;4.63;2.38;;;;;;;;;;5031449;28;20633;-84
2023/05/19 10:59:59;;;;;;;3.25;1.75;;;;;;;;;;5031095;28;20174;-84
2023/05/19 11:02:36;;;;;;;6.07;2.22;;;;;;;;;;5031257;28;20217;-84
2023/05/19 11:05:09;;;;;;;4.07;2.30;;;;;;;;;;5032927;28;20161;-84
2023/05/19 11:07:35;;;;;;;4.25;1.90;;;;;;;;;;5031433;28;20228;-83
2023/05/19 11:10:06;;;;;;;10.00;5.47;;;;;;;;;;5031174;28;20232;-84
2023/05/19 11:12:39;;;;;;;7.18;5.15;;;;;;;;;;5032384;28;20187;-84
2023/05/19 11:15:06;;;;;;;3.47;2.20;;;;;;;;;;5032726;28;20166;-84
2023/05/19 11:17:34;;;;;;;7.97;5.30;;;;;;;;;;5031191;28;20695;-84
2023/05/19 11:20:00;;;;;;;3.50;2.28;;;;;;;;;;5030948;28;20182;-84
2023/05/19 11:22:27;;;;;;;2.83;1.95;;;;;;;;;;5031599;28;20213;-84
2023/05/19 11:24:56;;;;;;;3.65;2.10;;;;;;;;;;5035621;28;20170;-84
2023/05/19 11:27:26;;;;;;;3.53;2.20;;;;;;;;;;5036036;28;20697;-84
2023/05/19 11:29:53;;;;;;;2.10;1.90;;;;;;;;;;5036183;28;20178;-83
2023/05/19 11:32:25;;;;;;;3.22;1.90;;;;;;;;;;5036673;28;20194;-84
2023/05/19 11:34:52;;;;;;;4.60;1.95;;;;;;;;;;5036583;28;20178;-84
2023/05/19 11:37:18;;;;;;;5.53;1.90;;;;;;;;;;5036257;28;20235;-84
2023/05/19 11:39:47;;;;;;;2.92;1.90;;;;;;;;;;5018578;28;20530;-84
2023/05/19 11:42:13;;;;;;;3.42;1.90;;;;;;;;;;5017793;28;20233;-84
2023/05/19 11:44:40;;;;;;;3.67;1.90;;;;;;;;;;5036088;28;20225;-84
2023/05/19 11:47:06;;;;;;;4.10;1.80;;;;;;;;;;5036327;28;20192;-84
2023/05/19 11:49:32;;;;;;;4.63;2.30;;;;;;;;;;5036191;28;20163;-84
2023/05/19 11:52:02;;;;;;;3.95;2.20;;;;;;;;;;5051029;28;20194;-84
2023/05/19 11:54:32;;;;;;;3.78;2.10;;;;;;;;;;5051254;28;20179;-89
2023/05/19 11:57:02;;;;;;;4.28;2.03;;;;;;;;;;5051447;28;20182;-84
2023/05/19 11:59:31;;;;;;;2.80;2.00;;;;;;;;;;5052249;28;20324;-81
2023/05/19 12:01:57;;;;;;;2.28;1.85;;;;;;;;;;5075163;22;20236;-82
2023/05/19 12:04:23;;;;;;;4.60;2.17;;;;;;;;;;5074336;28;20263;-82
2023/05/19 12:06:49;;;;;;;3.30;2.00;;;;;;;;;;5074311;28;20181;-82
2023/05/19 12:09:15;;;;;;;2.83;2.28;;;;;;;;;;5075484;28;20199;-83
2023/05/19 12:11:41;;;;;;;3.30;1.98;;;;;;;;;;5073629;28;20196;-84
2023/05/19 12:14:09;;;;;;;2.35;1.60;;;;;;;;;;5074075;28;20248;-84
2023/05/19 12:16:35;;;;;;;4.35;2.08;;;;;;;;;;5075434;28;20189;-83
2023/05/19 12:19:01;;;;;;;3.60;2.00;;;;;;;;;;5074370;28;20204;-81
2023/05/19 12:21:28;;;;;;;3.08;1.98;;;;;;;;;;5075057;28;20679;-83
2023/05/19 12:23:54;;;;;;;2.33;1.88;;;;;;;;;;5058086;28;20302;-83
2023/05/19 12:26:21;;;;;;;3.53;2.10;;;;;;;;;;5056797;28;20180;-81
2023/05/19 12:28:47;;;;;;;2.97;1.90;;;;;;;;;;5065286;28;20184;-81
2023/05/19 12:31:13;;;;;;;2.67;1.90;;;;;;;;;;5074790;28;20535;-82
2023/05/19 12:33:40;;;;;;;3.22;2.08;;;;;;;;;;5075070;28;20200;-82
2023/05/19 12:36:07;;;;;;;4.05;2.38;;;;;;;;;;5073966;28;20172;-84
2023/05/19 12:38:36;;;;;;;2.25;2.03;;;;;;;;;;5073989;28;20229;-83
2023/05/19 12:41:02;;;;;;;2.92;2.05;;;;;;;;;;5073251;28;20607;-84
2023/05/19 12:43:28;;;;;;;2.10;1.77;;;;;;;;;;5074055;28;20176;-85
2023/05/19 12:45:54;;;;;;;2.70;1.80;;;;;;;;;;5067955;28;20226;-84
2023/05/19 12:48:23;;;;;;;4.05;1.80;;;;;;;;;;5057954;28;20647;-85
2023/05/19 12:50:52;;;;;;;1.83;1.63;;;;;;;;;;5055829;28;20180;-85
2023/05/19 12:53:19;;;;;;;5.40;2.05;;;;;;;;;;5056587;28;20192;-85
2023/05/19 12:55:45;;;;;;;1.85;1.65;;;;;;;;;;5074432;28;20165;-85
2023/05/19 12:58:11;;;;;;;3.42;1.67;;;;;;;;;;5074441;28;20196;-85
2023/05/19 13:00:42;;;;;;;2.67;1.80;;;;;;;;;;5055906;28;20173;-85
2023/05/19 13:03:14;;;;;;;2.67;1.67;;;;;;;;;;5056319;28;20228;-85
2023/05/19 13:05:44;;;;;;;2.60;1.60;;;;;;;;;;5056097;28;20176;-85
2023/05/19 13:08:11;;;;;;;3.72;1.80;;;;;;;;;;5074006;28;20651;-85
2023/05/19 13:10:38;;;;;;;2.78;1.60;;;;;;;;;;5073943;28;20171;-85
2023/05/19 13:13:05;;;;;;;1.90;1.60;;;;;;;;;;5073971;28;20197;-85
2023/05/19 13:15:36;;;;;;;2.40;1.95;;;;;;;;;;5056265;28;20290;-81
2023/05/19 13:18:03;;;;;;;3.22;1.70;;;;;;;;;;5074547;28;20180;-81
2023/05/19 13:20:29;;;;;;;2.15;1.80;;;;;;;;;;5074051;28;20232;-81
2023/05/19 13:22:56;;;;;;;1.70;1.60;;;;;;;;;;5074873;28;20209;-81
2023/05/19 13:25:22;;;;;;;2.95;1.90;;;;;;;;;;5074801;28;20560;-81
2023/05/19 13:27:48;;;;;;;2.35;1.90;;;;;;;;;;5074680;28;20177;-81
2023/05/19 13:30:15;;;;;;;1.80;1.70;;;;;;;;;;5073225;28;20219;-82
2023/05/19 13:32:41;;;;;;;2.05;1.70;;;;;;;;;;5055994;28;20203;-82
2023/05/19 13:35:09;;;;;;;2.20;1.85;;;;;;;;;;5074154;28;20177;-81
2023/05/19 13:37:35;;;;;;;2.88;2.00;;;;;;;;;;5056280;28;20173;-81
2023/05/19 13:40:02;;;;;;;2.92;1.73;;;;;;;;;;5055815;28;20219;-81
2023/05/19 13:42:28;;;;;;;2.10;1.88;;;;;;;;;;5055961;28;20774;-81
2023/05/19 13:44:57;;;;;;;3.17;1.80;;;;;;;;;;5055722;28;20260;-81
2023/05/19 13:47:24;;;;;;;2.88;1.73;;;;;;;;;;5073384;28;20161;-81
2023/05/19 13:49:50;;;;;;;2.10;1.90;;;;;;;;;;5055353;28;20268;-81
2023/05/19 13:52:16;;;;;;;2.33;1.90;;;;;;;;;;5073967;28;20201;-81
2023/05/19 13:54:42;;;;;;;3.00;1.77;;;;;;;;;;5055729;28;20173;-81
2023/05/19 13:57:08;;;;;;;3.50;1.88;;;;;;;;;;5055650;28;20184;-81
2023/05/19 13:59:35;;;;;;;2.17;1.73;;;;;;;;;;5055495;28;20173;-81
2023/05/19 14:02:01;;;;;;;1.90;1.70;;;;;;;;;;5073322;28;20213;-81
2023/05/19 14:04:27;;;;;;;3.13;1.97;;;;;;;;;;5056037;28;20183;-81
2023/05/19 14:06:54;;;;;;;2.47;1.70;;;;;;;;;;5055629;28;20242;-81
2023/05/19 14:09:20;;;;;;;3.00;1.90;;;;;;;;;;5054674;28;20264;-82
2023/05/19 14:11:46;;;;;;;3.80;1.90;;;;;;;;;;5072791;28;20217;-81
2023/05/19 14:14:12;;;;;;;2.10;1.80;;;;;;;;;;5072115;28;20177;-82
2023/05/19 14:16:39;;;;;;;2.40;1.70;;;;;;;;;;5053685;28;20176;-83
2023/05/19 14:19:05;;;;;;;2.38;1.90;;;;;;;;;;5071705;28;20181;-82
2023/05/19 14:21:31;;;;;;;1.77;1.67;;;;;;;;;;5073364;28;20209;-81
2023/05/19 14:23:57;;;;;;;2.10;1.73;;;;;;;;;;5061302;28;20643;-81
2023/05/19 14:26:23;;;;;;;1.93;1.60;;;;;;;;;;5061149;28;20189;-81
2023/05/19 14:28:50;;;;;;;2.20;1.80;;;;;;;;;;5073377;28;20173;-80
2023/05/19 14:31:16;;;;;;;2.88;1.73;;;;;;;;;;5055360;28;20177;-80
2023/05/19 14:33:42;;;;;;;2.58;1.60;;;;;;;;;;5073362;28;20192;-82
2023/05/19 14:36:08;;;;;;;2.57;1.50;;;;;;;;;;5054485;28;20181;-82
2023/05/19 14:38:35;;;;;;;2.20;1.60;;;;;;;;;;5057307;28;20172;-83
2023/05/19 14:41:01;;;;;;;3.20;1.60;;;;;;;;;;5072314;28;20197;-83
2023/05/19 14:43:27;;;;;;;3.13;1.80;;;;;;;;;;5054374;28;20196;-83